sensor_id;sensor_type;location;lat;lon;timestamp;P1;durP1;ratioP1;P2;durP2;ratioP2
29816;SDS011;16805;52.956;5.906;2023-07-28T00:02:17;9.38;;;4.18;;
29816;SDS011;16805;52.956;5.906;2023-07-28T00:04:43;11.55;;;4.25;;
29816;SDS011;16805;52.956;5.906;2023-07-28T00:07:09;13.00;;;4.50;;
29816;SDS011;16805;52.956;5.906;2023-07-28T00:09:34;10.00;;;4.22;;
29816;SDS011;16805;52.956;5.906;2023-07-28T00:12:00;10.13;;;4.25;;
29816;SDS011;16805;52.956;5.906;2023-07-28T00:14:27;11.40;;;5.32;;
29816;SDS011;16805;52.956;5.906;2023-07-28T00:16:56;10.88;;;4.78;;
29816;SDS011;16805;52.956;5.906;2023-07-28T00:19:22;7.35;;;5.38;;
29816;SDS011;16805;52.956;5.906;2023-07-28T00:21:48;10.07;;;5.32;;
29816;SDS011;16805;52.956;5.906;2023-07-28T00:24:15;7.25;;;4.75;;
29816;SDS011;16805;52.956;5.906;2023-07-28T00:26:41;6.93;;;4.38;;
29816;SDS011;16805;52.956;5.906;2023-07-28T00:29:07;8.73;;;5.07;;
29816;SDS011;16805;52.956;5.906;2023-07-28T00:31:33;12.38;;;4.93;;
29816;SDS011;16805;52.956;5.906;2023-07-28T00:33:59;12.10;;;5.10;;
29816;SDS011;16805;52.956;5.906;2023-07-28T00:36:25;10.40;;;4.72;;
29816;SDS011;16805;52.956;5.906;2023-07-28T00:38:50;11.30;;;4.95;;
29816;SDS011;16805;52.956;5.906;2023-07-28T00:41:16;8.18;;;4.95;;
29816;SDS011;16805;52.956;5.906;2023-07-28T00:43:42;14.07;;;4.80;;
29816;SDS011;16805;52.956;5.906;2023-07-28T00:46:08;10.35;;;5.13;;
29816;SDS011;16805;52.956;5.906;2023-07-28T00:48:35;10.00;;;4.93;;
29816;SDS011;16805;52.956;5.906;2023-07-28T00:51:01;8.00;;;5.25;;
29816;SDS011;16805;52.956;5.906;2023-07-28T00:53:27;11.45;;;5.15;;
29816;SDS011;16805;52.956;5.906;2023-07-28T00:55:54;11.95;;;4.90;;
29816;SDS011;16805;52.956;5.906;2023-07-28T00:58:20;9.40;;;4.50;;
29816;SDS011;16805;52.956;5.906;2023-07-28T01:00:46;6.82;;;4.75;;
29816;SDS011;16805;52.956;5.906;2023-07-28T01:03:12;10.63;;;5.20;;
29816;SDS011;16805;52.956;5.906;2023-07-28T01:05:44;10.38;;;5.15;;
29816;SDS011;16805;52.956;5.906;2023-07-28T01:10:57;7.97;;;4.07;;
29816;SDS011;16805;52.956;5.906;2023-07-28T01:13:23;13.60;;;3.95;;
29816;SDS011;16805;52.956;5.906;2023-07-28T01:15:49;12.32;;;4.38;;
29816;SDS011;16805;52.956;5.906;2023-07-28T01:18:14;14.25;;;3.67;;
29816;SDS011;16805;52.956;5.906;2023-07-28T01:20:40;7.63;;;3.80;;
29816;SDS011;16805;52.956;5.906;2023-07-28T01:28:06;7.25;;;3.42;;
29816;SDS011;16805;52.956;5.906;2023-07-28T01:30:32;8.45;;;3.45;;
29816;SDS011;16805;52.956;5.906;2023-07-28T01:32:58;14.00;;;3.42;;
29816;SDS011;16805;52.956;5.906;2023-07-28T01:35:24;5.65;;;3.25;;
29816;SDS011;16805;52.956;5.906;2023-07-28T01:37:51;6.07;;;2.72;;
29816;SDS011;16805;52.956;5.906;2023-07-28T01:40:17;7.75;;;2.83;;
29816;SDS011;16805;52.956;5.906;2023-07-28T01:42:43;7.95;;;3.30;;
29816;SDS011;16805;52.956;5.906;2023-07-28T01:45:09;9.40;;;2.70;;
29816;SDS011;16805;52.956;5.906;2023-07-28T01:47:35;14.73;;;3.53;;
29816;SDS011;16805;52.956;5.906;2023-07-28T01:50:00;10.30;;;3.40;;
29816;SDS011;16805;52.956;5.906;2023-07-28T01:52:26;9.75;;;2.63;;
29816;SDS011;16805;52.956;5.906;2023-07-28T01:54:54;9.90;;;3.25;;
29816;SDS011;16805;52.956;5.906;2023-07-28T01:57:20;6.43;;;2.72;;
29816;SDS011;16805;52.956;5.906;2023-07-28T01:59:46;5.13;;;2.58;;
29816;SDS011;16805;52.956;5.906;2023-07-28T02:02:12;7.00;;;3.03;;
29816;SDS011;16805;52.956;5.906;2023-07-28T02:04:37;7.90;;;3.25;;
29816;SDS011;16805;52.956;5.906;2023-07-28T02:07:03;7.47;;;2.88;;
29816;SDS011;16805;52.956;5.906;2023-07-28T02:09:29;7.50;;;3.22;;
29816;SDS011;16805;52.956;5.906;2023-07-28T02:11:55;9.40;;;2.78;;
29816;SDS011;16805;52.956;5.906;2023-07-28T02:14:20;9.57;;;2.20;;
29816;SDS011;16805;52.956;5.906;2023-07-28T02:16:46;8.20;;;3.00;;
29816;SDS011;16805;52.956;5.906;2023-07-28T02:19:11;6.60;;;2.58;;
29816;SDS011;16805;52.956;5.906;2023-07-28T02:21:37;9.60;;;3.00;;
29816;SDS011;16805;52.956;5.906;2023-07-28T02:24:03;10.68;;;3.47;;
29816;SDS011;16805;52.956;5.906;2023-07-28T02:26:29;6.57;;;2.63;;
29816;SDS011;16805;52.956;5.906;2023-07-28T02:28:55;5.28;;;2.13;;
29816;SDS011;16805;52.956;5.906;2023-07-28T02:31:20;6.70;;;3.00;;
29816;SDS011;16805;52.956;5.906;2023-07-28T02:33:46;9.60;;;2.83;;
29816;SDS011;16805;52.956;5.906;2023-07-28T02:36:12;8.70;;;2.60;;
29816;SDS011;16805;52.956;5.906;2023-07-28T02:38:38;5.28;;;2.42;;
29816;SDS011;16805;52.956;5.906;2023-07-28T02:41:03;8.80;;;2.30;;
29816;SDS011;16805;52.956;5.906;2023-07-28T02:43:29;7.90;;;2.38;;
29816;SDS011;16805;52.956;5.906;2023-07-28T02:45:56;7.07;;;2.55;;
29816;SDS011;16805;52.956;5.906;2023-07-28T02:48:22;9.95;;;3.05;;
29816;SDS011;16805;52.956;5.906;2023-07-28T02:50:49;5.97;;;2.28;;
29816;SDS011;16805;52.956;5.906;2023-07-28T02:53:16;6.85;;;2.60;;
29816;SDS011;16805;52.956;5.906;2023-07-28T02:55:46;8.07;;;2.92;;
29816;SDS011;16805;52.956;5.906;2023-07-28T02:58:12;8.40;;;2.70;;
29816;SDS011;16805;52.956;5.906;2023-07-28T03:00:39;8.48;;;2.55;;
29816;SDS011;16805;52.956;5.906;2023-07-28T03:03:07;9.55;;;2.70;;
29816;SDS011;16805;52.956;5.906;2023-07-28T03:05:35;9.25;;;2.78;;
29816;SDS011;16805;52.956;5.906;2023-07-28T03:08:01;6.00;;;2.67;;
29816;SDS011;16805;52.956;5.906;2023-07-28T03:10:27;5.75;;;2.60;;
29816;SDS011;16805;52.956;5.906;2023-07-28T03:12:53;4.28;;;2.22;;
29816;SDS011;16805;52.956;5.906;2023-07-28T03:15:19;7.88;;;3.00;;
29816;SDS011;16805;52.956;5.906;2023-07-28T03:17:47;7.82;;;2.88;;
29816;SDS011;16805;52.956;5.906;2023-07-28T03:20:16;4.45;;;2.72;;
29816;SDS011;16805;52.956;5.906;2023-07-28T03:22:42;6.75;;;3.05;;
29816;SDS011;16805;52.956;5.906;2023-07-28T03:25:08;9.30;;;2.97;;
29816;SDS011;16805;52.956;5.906;2023-07-28T03:27:34;6.95;;;3.42;;
29816;SDS011;16805;52.956;5.906;2023-07-28T03:30:00;5.15;;;3.03;;
29816;SDS011;16805;52.956;5.906;2023-07-28T03:32:26;4.85;;;2.63;;
29816;SDS011;16805;52.956;5.906;2023-07-28T03:34:52;4.43;;;3.20;;
29816;SDS011;16805;52.956;5.906;2023-07-28T03:37:17;6.88;;;2.72;;
29816;SDS011;16805;52.956;5.906;2023-07-28T03:39:44;6.88;;;3.03;;
29816;SDS011;16805;52.956;5.906;2023-07-28T03:42:10;7.70;;;3.33;;
29816;SDS011;16805;52.956;5.906;2023-07-28T03:44:35;9.63;;;3.05;;
29816;SDS011;16805;52.956;5.906;2023-07-28T03:47:03;10.45;;;3.17;;
29816;SDS011;16805;52.956;5.906;2023-07-28T03:49:29;9.95;;;3.10;;
29816;SDS011;16805;52.956;5.906;2023-07-28T03:51:55;7.45;;;2.97;;
29816;SDS011;16805;52.956;5.906;2023-07-28T03:54:21;7.78;;;3.00;;
29816;SDS011;16805;52.956;5.906;2023-07-28T03:56:46;9.85;;;3.40;;
29816;SDS011;16805;52.956;5.906;2023-07-28T03:59:12;6.25;;;3.10;;
29816;SDS011;16805;52.956;5.906;2023-07-28T04:01:38;7.55;;;3.38;;
29816;SDS011;16805;52.956;5.906;2023-07-28T04:04:03;6.47;;;3.47;;
29816;SDS011;16805;52.956;5.906;2023-07-28T04:09:21;10.40;;;3.50;;
29816;SDS011;16805;52.956;5.906;2023-07-28T04:11:47;8.93;;;3.65;;
29816;SDS011;16805;52.956;5.906;2023-07-28T04:14:13;9.70;;;3.10;;
29816;SDS011;16805;52.956;5.906;2023-07-28T04:16:39;10.73;;;3.35;;
29816;SDS011;16805;52.956;5.906;2023-07-28T04:19:05;8.48;;;2.90;;
29816;SDS011;16805;52.956;5.906;2023-07-28T04:21:31;6.85;;;3.20;;
29816;SDS011;16805;52.956;5.906;2023-07-28T04:23:57;4.80;;;2.58;;
29816;SDS011;16805;52.956;5.906;2023-07-28T04:26:23;12.88;;;4.57;;
29816;SDS011;16805;52.956;5.906;2023-07-28T04:28:49;7.07;;;3.53;;
29816;SDS011;16805;52.956;5.906;2023-07-28T04:31:15;6.30;;;2.67;;
29816;SDS011;16805;52.956;5.906;2023-07-28T04:33:41;11.55;;;3.13;;
29816;SDS011;16805;52.956;5.906;2023-07-28T04:36:07;10.65;;;3.47;;
29816;SDS011;16805;52.956;5.906;2023-07-28T04:38:33;15.90;;;3.65;;
29816;SDS011;16805;52.956;5.906;2023-07-28T04:40:59;6.82;;;3.58;;
29816;SDS011;16805;52.956;5.906;2023-07-28T04:43:24;8.65;;;3.45;;
29816;SDS011;16805;52.956;5.906;2023-07-28T04:45:50;8.45;;;3.65;;
29816;SDS011;16805;52.956;5.906;2023-07-28T04:48:16;9.02;;;3.47;;
29816;SDS011;16805;52.956;5.906;2023-07-28T04:50:41;9.65;;;3.17;;
29816;SDS011;16805;52.956;5.906;2023-07-28T04:53:07;6.70;;;2.97;;
29816;SDS011;16805;52.956;5.906;2023-07-28T04:55:33;6.28;;;3.22;;
29816;SDS011;16805;52.956;5.906;2023-07-28T04:57:58;5.60;;;2.63;;
29816;SDS011;16805;52.956;5.906;2023-07-28T05:00:24;5.57;;;2.58;;
29816;SDS011;16805;52.956;5.906;2023-07-28T05:02:50;8.88;;;3.10;;
29816;SDS011;16805;52.956;5.906;2023-07-28T05:05:16;7.10;;;2.53;;
29816;SDS011;16805;52.956;5.906;2023-07-28T05:07:41;7.63;;;2.78;;
29816;SDS011;16805;52.956;5.906;2023-07-28T05:10:07;13.05;;;3.35;;
29816;SDS011;16805;52.956;5.906;2023-07-28T05:12:33;7.57;;;2.97;;
29816;SDS011;16805;52.956;5.906;2023-07-28T05:14:59;5.93;;;3.38;;
29816;SDS011;16805;52.956;5.906;2023-07-28T05:17:25;6.50;;;2.90;;
29816;SDS011;16805;52.956;5.906;2023-07-28T05:19:51;6.35;;;2.55;;
29816;SDS011;16805;52.956;5.906;2023-07-28T05:22:17;7.18;;;2.78;;
29816;SDS011;16805;52.956;5.906;2023-07-28T05:24:44;5.70;;;3.00;;
29816;SDS011;16805;52.956;5.906;2023-07-28T05:27:13;4.85;;;2.63;;
29816;SDS011;16805;52.956;5.906;2023-07-28T05:29:39;13.40;;;2.85;;
29816;SDS011;16805;52.956;5.906;2023-07-28T05:32:05;6.03;;;3.22;;
29816;SDS011;16805;52.956;5.906;2023-07-28T05:34:31;8.20;;;3.40;;
29816;SDS011;16805;52.956;5.906;2023-07-28T05:36:56;10.98;;;3.35;;
29816;SDS011;16805;52.956;5.906;2023-07-28T05:39:22;4.90;;;2.95;;
29816;SDS011;16805;52.956;5.906;2023-07-28T05:41:48;5.43;;;3.13;;
29816;SDS011;16805;52.956;5.906;2023-07-28T05:44:14;11.55;;;2.95;;
29816;SDS011;16805;52.956;5.906;2023-07-28T05:46:39;9.98;;;3.45;;
29816;SDS011;16805;52.956;5.906;2023-07-28T05:49:05;11.38;;;3.33;;
29816;SDS011;16805;52.956;5.906;2023-07-28T05:51:31;8.27;;;3.70;;
29816;SDS011;16805;52.956;5.906;2023-07-28T05:53:57;10.07;;;3.67;;
29816;SDS011;16805;52.956;5.906;2023-07-28T05:56:22;3.72;;;3.35;;
29816;SDS011;16805;52.956;5.906;2023-07-28T05:58:48;3.20;;;2.90;;
29816;SDS011;16805;52.956;5.906;2023-07-28T06:01:14;8.65;;;4.65;;
29816;SDS011;16805;52.956;5.906;2023-07-28T06:03:40;7.63;;;3.38;;
29816;SDS011;16805;52.956;5.906;2023-07-28T06:06:06;14.25;;;4.82;;
29816;SDS011;16805;52.956;5.906;2023-07-28T06:08:32;9.18;;;4.35;;
29816;SDS011;16805;52.956;5.906;2023-07-28T06:10:58;5.47;;;4.15;;
29816;SDS011;16805;52.956;5.906;2023-07-28T06:13:24;9.15;;;4.30;;
29816;SDS011;16805;52.956;5.906;2023-07-28T06:15:52;11.82;;;4.00;;
29816;SDS011;16805;52.956;5.906;2023-07-28T06:18:19;10.27;;;4.60;;
29816;SDS011;16805;52.956;5.906;2023-07-28T06:20:47;13.55;;;4.40;;
29816;SDS011;16805;52.956;5.906;2023-07-28T06:23:13;12.00;;;4.40;;
29816;SDS011;16805;52.956;5.906;2023-07-28T06:25:38;5.70;;;3.95;;
29816;SDS011;16805;52.956;5.906;2023-07-28T06:28:09;6.35;;;4.18;;
29816;SDS011;16805;52.956;5.906;2023-07-28T06:30:35;7.78;;;3.85;;
29816;SDS011;16805;52.956;5.906;2023-07-28T06:33:02;9.68;;;3.60;;
29816;SDS011;16805;52.956;5.906;2023-07-28T06:35:28;6.63;;;4.10;;
29816;SDS011;16805;52.956;5.906;2023-07-28T06:37:54;9.77;;;4.72;;
29816;SDS011;16805;52.956;5.906;2023-07-28T06:40:19;9.82;;;4.25;;
29816;SDS011;16805;52.956;5.906;2023-07-28T06:42:45;9.52;;;3.92;;
29816;SDS011;16805;52.956;5.906;2023-07-28T06:45:11;8.73;;;4.10;;
29816;SDS011;16805;52.956;5.906;2023-07-28T06:47:37;5.05;;;4.13;;
29816;SDS011;16805;52.956;5.906;2023-07-28T06:50:03;7.10;;;3.08;;
29816;SDS011;16805;52.956;5.906;2023-07-28T06:52:30;9.07;;;3.47;;
29816;SDS011;16805;52.956;5.906;2023-07-28T06:54:56;5.18;;;2.78;;
29816;SDS011;16805;52.956;5.906;2023-07-28T06:57:21;6.30;;;3.58;;
29816;SDS011;16805;52.956;5.906;2023-07-28T06:59:47;5.00;;;2.97;;
29816;SDS011;16805;52.956;5.906;2023-07-28T07:02:15;6.00;;;3.67;;
29816;SDS011;16805;52.956;5.906;2023-07-28T07:04:41;5.75;;;3.60;;
29816;SDS011;16805;52.956;5.906;2023-07-28T07:07:07;5.53;;;4.30;;
29816;SDS011;16805;52.956;5.906;2023-07-28T07:09:33;7.35;;;5.03;;
29816;SDS011;16805;52.956;5.906;2023-07-28T07:11:59;6.72;;;4.40;;
29816;SDS011;16805;52.956;5.906;2023-07-28T07:14:25;10.10;;;4.32;;
29816;SDS011;16805;52.956;5.906;2023-07-28T07:16:51;8.38;;;3.97;;
29816;SDS011;16805;52.956;5.906;2023-07-28T07:19:16;6.45;;;4.13;;
29816;SDS011;16805;52.956;5.906;2023-07-28T07:21:42;6.45;;;3.85;;
29816;SDS011;16805;52.956;5.906;2023-07-28T07:24:09;5.18;;;3.75;;
29816;SDS011;16805;52.956;5.906;2023-07-28T07:26:38;11.05;;;4.22;;
29816;SDS011;16805;52.956;5.906;2023-07-28T07:29:10;4.95;;;4.00;;
29816;SDS011;16805;52.956;5.906;2023-07-28T07:31:36;5.47;;;3.83;;
29816;SDS011;16805;52.956;5.906;2023-07-28T07:34:01;6.22;;;4.43;;
29816;SDS011;16805;52.956;5.906;2023-07-28T07:36:29;6.28;;;3.50;;
29816;SDS011;16805;52.956;5.906;2023-07-28T07:38:55;6.78;;;4.13;;
29816;SDS011;16805;52.956;5.906;2023-07-28T07:41:21;7.07;;;3.80;;
29816;SDS011;16805;52.956;5.906;2023-07-28T07:43:48;9.02;;;4.38;;
29816;SDS011;16805;52.956;5.906;2023-07-28T07:46:15;8.60;;;3.78;;
29816;SDS011;16805;52.956;5.906;2023-07-28T07:48:41;8.95;;;4.25;;
29816;SDS011;16805;52.956;5.906;2023-07-28T07:51:07;5.75;;;3.58;;
29816;SDS011;16805;52.956;5.906;2023-07-28T07:53:33;6.10;;;3.70;;
29816;SDS011;16805;52.956;5.906;2023-07-28T07:56:01;4.20;;;2.90;;
29816;SDS011;16805;52.956;5.906;2023-07-28T07:58:30;6.60;;;3.13;;
29816;SDS011;16805;52.956;5.906;2023-07-28T08:00:57;5.13;;;2.90;;
29816;SDS011;16805;52.956;5.906;2023-07-28T08:03:23;7.20;;;2.83;;
29816;SDS011;16805;52.956;5.906;2023-07-28T08:05:49;6.03;;;2.97;;
29816;SDS011;16805;52.956;5.906;2023-07-28T08:08:16;5.60;;;2.75;;
29816;SDS011;16805;52.956;5.906;2023-07-28T08:10:42;3.70;;;3.10;;
29816;SDS011;16805;52.956;5.906;2023-07-28T08:13:08;8.25;;;3.08;;
29816;SDS011;16805;52.956;5.906;2023-07-28T08:15:35;3.30;;;2.90;;
29816;SDS011;16805;52.956;5.906;2023-07-28T08:18:00;4.22;;;2.70;;
29816;SDS011;16805;52.956;5.906;2023-07-28T08:20:26;4.75;;;2.55;;
29816;SDS011;16805;52.956;5.906;2023-07-28T08:22:52;4.82;;;3.10;;
29816;SDS011;16805;52.956;5.906;2023-07-28T08:25:17;4.35;;;3.50;;
29816;SDS011;16805;52.956;5.906;2023-07-28T08:27:43;3.80;;;2.95;;
29816;SDS011;16805;52.956;5.906;2023-07-28T08:30:09;4.03;;;2.65;;
29816;SDS011;16805;52.956;5.906;2023-07-28T08:32:36;7.68;;;2.70;;
29816;SDS011;16805;52.956;5.906;2023-07-28T08:35:02;4.32;;;2.78;;
29816;SDS011;16805;52.956;5.906;2023-07-28T08:37:28;7.85;;;3.58;;
29816;SDS011;16805;52.956;5.906;2023-07-28T08:39:54;5.85;;;2.97;;
29816;SDS011;16805;52.956;5.906;2023-07-28T08:42:20;6.22;;;3.08;;
29816;SDS011;16805;52.956;5.906;2023-07-28T08:44:47;5.43;;;4.05;;
29816;SDS011;16805;52.956;5.906;2023-07-28T08:47:13;5.57;;;4.35;;
29816;SDS011;16805;52.956;5.906;2023-07-28T08:49:39;9.65;;;4.47;;
29816;SDS011;16805;52.956;5.906;2023-07-28T08:52:05;6.72;;;4.45;;
29816;SDS011;16805;52.956;5.906;2023-07-28T08:54:31;6.25;;;4.70;;
29816;SDS011;16805;52.956;5.906;2023-07-28T08:56:57;6.68;;;3.88;;
29816;SDS011;16805;52.956;5.906;2023-07-28T08:59:23;5.43;;;4.10;;
29816;SDS011;16805;52.956;5.906;2023-07-28T09:01:52;7.25;;;4.28;;
29816;SDS011;16805;52.956;5.906;2023-07-28T09:04:18;11.57;;;4.25;;
29816;SDS011;16805;52.956;5.906;2023-07-28T09:06:45;8.40;;;3.83;;
29816;SDS011;16805;52.956;5.906;2023-07-28T09:09:12;5.88;;;3.22;;
29816;SDS011;16805;52.956;5.906;2023-07-28T09:11:52;3.88;;;2.90;;
29816;SDS011;16805;52.956;5.906;2023-07-28T09:14:19;5.07;;;3.35;;
29816;SDS011;16805;52.956;5.906;2023-07-28T09:16:46;5.93;;;3.97;;
29816;SDS011;16805;52.956;5.906;2023-07-28T09:19:12;5.75;;;3.95;;
29816;SDS011;16805;52.956;5.906;2023-07-28T09:21:39;5.93;;;3.75;;
29816;SDS011;16805;52.956;5.906;2023-07-28T09:24:07;5.18;;;3.67;;
29816;SDS011;16805;52.956;5.906;2023-07-28T09:31:41;3.72;;;3.20;;
29816;SDS011;16805;52.956;5.906;2023-07-28T09:34:07;6.78;;;2.90;;
29816;SDS011;16805;52.956;5.906;2023-07-28T09:36:34;5.53;;;2.70;;
29816;SDS011;16805;52.956;5.906;2023-07-28T09:39:01;3.30;;;2.25;;
29816;SDS011;16805;52.956;5.906;2023-07-28T09:41:31;5.93;;;2.55;;
29816;SDS011;16805;52.956;5.906;2023-07-28T09:43:59;5.40;;;2.97;;
29816;SDS011;16805;52.956;5.906;2023-07-28T09:46:26;4.10;;;2.45;;
29816;SDS011;16805;52.956;5.906;2023-07-28T09:48:56;3.55;;;3.13;;
29816;SDS011;16805;52.956;5.906;2023-07-28T09:51:25;5.28;;;3.30;;
29816;SDS011;16805;52.956;5.906;2023-07-28T09:53:56;4.30;;;2.72;;
29816;SDS011;16805;52.956;5.906;2023-07-28T09:56:28;7.20;;;3.05;;
29816;SDS011;16805;52.956;5.906;2023-07-28T09:58:57;5.45;;;2.67;;
29816;SDS011;16805;52.956;5.906;2023-07-28T10:01:24;8.02;;;2.88;;
29816;SDS011;16805;52.956;5.906;2023-07-28T10:03:50;2.78;;;2.58;;
29816;SDS011;16805;52.956;5.906;2023-07-28T10:06:17;3.78;;;3.05;;
29816;SDS011;16805;52.956;5.906;2023-07-28T10:08:44;3.95;;;3.22;;
29816;SDS011;16805;52.956;5.906;2023-07-28T10:11:14;5.95;;;3.13;;
29816;SDS011;16805;52.956;5.906;2023-07-28T10:13:42;2.90;;;2.63;;
29816;SDS011;16805;52.956;5.906;2023-07-28T10:16:09;7.72;;;3.20;;
29816;SDS011;16805;52.956;5.906;2023-07-28T10:18:35;6.80;;;3.20;;
29816;SDS011;16805;52.956;5.906;2023-07-28T10:21:05;6.60;;;3.58;;
29816;SDS011;16805;52.956;5.906;2023-07-28T10:23:34;4.85;;;3.00;;
29816;SDS011;16805;52.956;5.906;2023-07-28T10:26:02;9.50;;;2.90;;
29816;SDS011;16805;52.956;5.906;2023-07-28T10:28:40;4.47;;;3.03;;
29816;SDS011;16805;52.956;5.906;2023-07-28T10:31:07;4.43;;;3.08;;
29816;SDS011;16805;52.956;5.906;2023-07-28T10:38:41;4.50;;;3.15;;
29816;SDS011;16805;52.956;5.906;2023-07-28T10:41:12;5.10;;;2.80;;
29816;SDS011;16805;52.956;5.906;2023-07-28T10:43:44;9.45;;;3.47;;
29816;SDS011;16805;52.956;5.906;2023-07-28T10:46:11;4.38;;;3.30;;
29816;SDS011;16805;52.956;5.906;2023-07-28T10:48:43;3.30;;;2.92;;
29816;SDS011;16805;52.956;5.906;2023-07-28T10:51:10;2.92;;;2.70;;
29816;SDS011;16805;52.956;5.906;2023-07-28T10:53:37;5.68;;;2.20;;
29816;SDS011;16805;52.956;5.906;2023-07-28T10:56:03;3.33;;;2.28;;
29816;SDS011;16805;52.956;5.906;2023-07-28T10:58:33;5.32;;;2.38;;
29816;SDS011;16805;52.956;5.906;2023-07-28T11:01:00;4.68;;;2.65;;
29816;SDS011;16805;52.956;5.906;2023-07-28T11:03:27;4.20;;;2.53;;
29816;SDS011;16805;52.956;5.906;2023-07-28T11:05:54;4.50;;;2.83;;
29816;SDS011;16805;52.956;5.906;2023-07-28T11:08:21;5.50;;;3.00;;
29816;SDS011;16805;52.956;5.906;2023-07-28T11:10:47;9.05;;;3.83;;
29816;SDS011;16805;52.956;5.906;2023-07-28T11:13:13;8.35;;;4.05;;
29816;SDS011;16805;52.956;5.906;2023-07-28T11:15:39;5.43;;;3.65;;
29816;SDS011;16805;52.956;5.906;2023-07-28T11:18:07;6.78;;;3.95;;
29816;SDS011;16805;52.956;5.906;2023-07-28T11:20:34;7.78;;;4.43;;
29816;SDS011;16805;52.956;5.906;2023-07-28T11:23:01;4.50;;;3.70;;
29816;SDS011;16805;52.956;5.906;2023-07-28T11:25:30;6.15;;;4.30;;
29816;SDS011;16805;52.956;5.906;2023-07-28T11:28:02;4.22;;;3.22;;
29816;SDS011;16805;52.956;5.906;2023-07-28T11:30:31;5.55;;;3.60;;
29816;SDS011;16805;52.956;5.906;2023-07-28T11:33:41;5.63;;;3.90;;
29816;SDS011;16805;52.956;5.906;2023-07-28T11:36:07;5.55;;;3.67;;
29816;SDS011;16805;52.956;5.906;2023-07-28T11:38:35;4.43;;;3.40;;
29816;SDS011;16805;52.956;5.906;2023-07-28T11:41:02;4.80;;;3.38;;
29816;SDS011;16805;52.956;5.906;2023-07-28T11:43:28;6.47;;;3.90;;
29816;SDS011;16805;52.956;5.906;2023-07-28T11:45:54;7.03;;;4.47;;
29816;SDS011;16805;52.956;5.906;2023-07-28T11:48:20;6.43;;;4.45;;
29816;SDS011;16805;52.956;5.906;2023-07-28T11:50:47;5.93;;;3.95;;
29816;SDS011;16805;52.956;5.906;2023-07-28T11:53:13;6.55;;;3.80;;
29816;SDS011;16805;52.956;5.906;2023-07-28T11:55:39;8.00;;;4.18;;
29816;SDS011;16805;52.956;5.906;2023-07-28T11:58:06;4.55;;;3.58;;
29816;SDS011;16805;52.956;5.906;2023-07-28T12:00:35;4.53;;;4.00;;
29816;SDS011;16805;52.956;5.906;2023-07-28T12:03:09;3.53;;;2.65;;
29816;SDS011;16805;52.956;5.906;2023-07-28T12:05:38;8.05;;;2.40;;
29816;SDS011;16805;52.956;5.906;2023-07-28T12:08:38;4.25;;;2.65;;
29816;SDS011;16805;52.956;5.906;2023-07-28T12:11:14;4.40;;;2.60;;
29816;SDS011;16805;52.956;5.906;2023-07-28T12:13:50;8.73;;;3.47;;
29816;SDS011;16805;52.956;5.906;2023-07-28T12:16:38;7.40;;;4.20;;
29816;SDS011;16805;52.956;5.906;2023-07-28T12:21:31;12.23;;;4.95;;
29816;SDS011;16805;52.956;5.906;2023-07-28T12:24:00;6.13;;;5.10;;
29816;SDS011;16805;52.956;5.906;2023-07-28T12:26:27;7.63;;;5.07;;
29816;SDS011;16805;52.956;5.906;2023-07-28T12:28:54;6.20;;;5.57;;
29816;SDS011;16805;52.956;5.906;2023-07-28T12:31:20;5.95;;;4.93;;
29816;SDS011;16805;52.956;5.906;2023-07-28T12:33:45;6.85;;;5.35;;
29816;SDS011;16805;52.956;5.906;2023-07-28T12:36:11;6.20;;;5.18;;
29816;SDS011;16805;52.956;5.906;2023-07-28T12:38:37;6.00;;;5.07;;
29816;SDS011;16805;52.956;5.906;2023-07-28T12:41:02;5.85;;;5.38;;
29816;SDS011;16805;52.956;5.906;2023-07-28T12:43:30;5.47;;;4.00;;
29816;SDS011;16805;52.956;5.906;2023-07-28T12:45:58;5.47;;;4.97;;
29816;SDS011;16805;52.956;5.906;2023-07-28T12:48:35;8.15;;;5.75;;
29816;SDS011;16805;52.956;5.906;2023-07-28T12:51:04;8.13;;;5.30;;
29816;SDS011;16805;52.956;5.906;2023-07-28T12:53:30;6.88;;;4.88;;
29816;SDS011;16805;52.956;5.906;2023-07-28T12:55:55;4.78;;;4.25;;
29816;SDS011;16805;52.956;5.906;2023-07-28T12:58:21;8.98;;;4.47;;
29816;SDS011;16805;52.956;5.906;2023-07-28T13:00:47;4.47;;;4.03;;
29816;SDS011;16805;52.956;5.906;2023-07-28T13:03:13;6.55;;;4.35;;
29816;SDS011;16805;52.956;5.906;2023-07-28T13:05:38;6.03;;;4.80;;
29816;SDS011;16805;52.956;5.906;2023-07-28T13:08:07;5.72;;;5.13;;
29816;SDS011;16805;52.956;5.906;2023-07-28T13:10:33;5.95;;;4.88;;
29816;SDS011;16805;52.956;5.906;2023-07-28T13:12:58;14.32;;;5.00;;
29816;SDS011;16805;52.956;5.906;2023-07-28T13:15:24;6.47;;;5.22;;
29816;SDS011;16805;52.956;5.906;2023-07-28T13:17:50;6.05;;;5.32;;
29816;SDS011;16805;52.956;5.906;2023-07-28T13:20:16;7.45;;;5.43;;
29816;SDS011;16805;52.956;5.906;2023-07-28T13:22:42;6.45;;;5.70;;
29816;SDS011;16805;52.956;5.906;2023-07-28T13:25:07;6.50;;;5.90;;
29816;SDS011;16805;52.956;5.906;2023-07-28T13:27:33;8.13;;;6.25;;
29816;SDS011;16805;52.956;5.906;2023-07-28T13:29:59;7.72;;;6.43;;
29816;SDS011;16805;52.956;5.906;2023-07-28T13:32:25;5.38;;;4.88;;
29816;SDS011;16805;52.956;5.906;2023-07-28T13:34:51;6.70;;;5.45;;
29816;SDS011;16805;52.956;5.906;2023-07-28T13:37:20;5.95;;;5.38;;
29816;SDS011;16805;52.956;5.906;2023-07-28T13:39:46;4.65;;;3.70;;
29816;SDS011;16805;52.956;5.906;2023-07-28T13:42:11;4.90;;;3.85;;
29816;SDS011;16805;52.956;5.906;2023-07-28T13:44:40;5.18;;;3.65;;
29816;SDS011;16805;52.956;5.906;2023-07-28T13:47:06;4.90;;;4.38;;
29816;SDS011;16805;52.956;5.906;2023-07-28T13:49:32;7.22;;;4.90;;
29816;SDS011;16805;52.956;5.906;2023-07-28T13:52:01;6.95;;;5.55;;
29816;SDS011;16805;52.956;5.906;2023-07-28T13:54:27;6.70;;;5.75;;
29816;SDS011;16805;52.956;5.906;2023-07-28T13:56:53;9.18;;;6.13;;
29816;SDS011;16805;52.956;5.906;2023-07-28T13:59:18;7.38;;;5.70;;
29816;SDS011;16805;52.956;5.906;2023-07-28T14:01:44;9.07;;;4.72;;
29816;SDS011;16805;52.956;5.906;2023-07-28T14:04:10;7.75;;;5.28;;
29816;SDS011;16805;52.956;5.906;2023-07-28T14:06:36;8.02;;;4.45;;
29816;SDS011;16805;52.956;5.906;2023-07-28T14:09:02;6.63;;;5.13;;
29816;SDS011;16805;52.956;5.906;2023-07-28T14:11:27;5.75;;;5.13;;
29816;SDS011;16805;52.956;5.906;2023-07-28T14:13:53;9.23;;;5.53;;
29816;SDS011;16805;52.956;5.906;2023-07-28T14:16:19;6.85;;;5.75;;
29816;SDS011;16805;52.956;5.906;2023-07-28T14:18:44;9.93;;;5.20;;
29816;SDS011;16805;52.956;5.906;2023-07-28T14:21:12;5.68;;;4.28;;
29816;SDS011;16805;52.956;5.906;2023-07-28T14:23:38;7.05;;;4.20;;
29816;SDS011;16805;52.956;5.906;2023-07-28T14:26:04;4.43;;;3.72;;
29816;SDS011;16805;52.956;5.906;2023-07-28T14:28:30;6.57;;;3.67;;
29816;SDS011;16805;52.956;5.906;2023-07-28T14:30:56;5.70;;;4.25;;
29816;SDS011;16805;52.956;5.906;2023-07-28T14:33:21;4.55;;;3.17;;
29816;SDS011;16805;52.956;5.906;2023-07-28T14:35:48;5.68;;;3.10;;
29816;SDS011;16805;52.956;5.906;2023-07-28T14:38:15;8.63;;;3.78;;
29816;SDS011;16805;52.956;5.906;2023-07-28T14:40:42;4.30;;;3.55;;
29816;SDS011;16805;52.956;5.906;2023-07-28T14:43:11;6.75;;;4.75;;
29816;SDS011;16805;52.956;5.906;2023-07-28T14:45:37;5.68;;;4.55;;
29816;SDS011;16805;52.956;5.906;2023-07-28T14:48:03;6.53;;;3.92;;
29816;SDS011;16805;52.956;5.906;2023-07-28T14:50:28;9.88;;;4.43;;
29816;SDS011;16805;52.956;5.906;2023-07-28T14:52:57;4.45;;;3.63;;
29816;SDS011;16805;52.956;5.906;2023-07-28T14:55:24;4.18;;;3.53;;
29816;SDS011;16805;52.956;5.906;2023-07-28T14:57:50;4.20;;;3.30;;
29816;SDS011;16805;52.956;5.906;2023-07-28T15:00:16;5.22;;;3.25;;
29816;SDS011;16805;52.956;5.906;2023-07-28T15:02:42;6.50;;;3.28;;
29816;SDS011;16805;52.956;5.906;2023-07-28T15:05:08;3.80;;;2.80;;
29816;SDS011;16805;52.956;5.906;2023-07-28T15:07:34;6.97;;;4.35;;